Terminal Aerodrome Forecast
Issued by NWS Bismarck, ND

Home | Current Version | Previous Version | Graphics & Text | Print | Product List | Glossary On
Versions: 1 2 3 4 5 6 7 8 9 10 11 12 13 14 15 16 17 18 19 20
000
FTUS43 KBIS 271738
TAFISN
TAF
KISN 271738Z 2718/2818 02009KT P6SM VCSH BKN050
     FM272000 04010KT P6SM VCTS BKN050CB
     FM280000 06007KT P6SM BKN110
     FM281000 07005KT P6SM BKN008
     FM281700 12006KT P6SM BKN045=

USA.gov is the U.S. government's official web portal to all federal, state and local government web resources and services.